createdAt,value
2022-07-29T00:01:54.304Z,22.79
2022-07-29T00:04:59.812Z,22.78
2022-07-29T00:08:07.240Z,22.72
2022-07-29T00:11:13.954Z,22.73
2022-07-29T00:14:21.299Z,22.77
2022-07-29T00:17:27.663Z,22.74
2022-07-29T00:20:33.384Z,22.73
2022-07-29T00:23:43.801Z,22.76
2022-07-29T00:26:46.948Z,22.74
2022-07-29T00:29:52.477Z,22.84
2022-07-29T00:32:55.005Z,22.85
2022-07-29T00:36:01.242Z,22.91
2022-07-29T00:39:04.500Z,22.88
2022-07-29T00:42:08.329Z,22.87
2022-07-29T00:45:16.141Z,22.80
2022-07-29T00:48:18.964Z,22.84
2022-07-29T00:51:22.915Z,22.80
2022-07-29T00:54:28.509Z,22.76
2022-07-29T00:57:35.812Z,22.72
2022-07-29T01:00:38.927Z,22.62
2022-07-29T01:03:41.667Z,22.61
2022-07-29T01:06:45.185Z,22.54
2022-07-29T01:09:48.371Z,22.51
2022-07-29T01:13:00.261Z,22.49
2022-07-29T01:16:13.093Z,22.51
2022-07-29T01:19:40.033Z,22.48
2022-07-29T01:23:03.500Z,22.44
2022-07-29T01:26:35.997Z,22.44
2022-07-29T01:29:59.757Z,22.43
2022-07-29T01:33:09.118Z,22.50
2022-07-29T01:36:17.750Z,22.49
2022-07-29T01:39:37.429Z,22.45
2022-07-29T01:42:45.426Z,22.47
2022-07-29T01:46:02.750Z,22.47
2022-07-29T01:49:14.943Z,22.44
2022-07-29T01:52:34.149Z,22.38
2022-07-29T01:55:41.310Z,22.34
2022-07-29T01:58:46.756Z,22.34
2022-07-29T02:02:00.891Z,22.28
2022-07-29T02:05:06.999Z,22.18
2022-07-29T02:08:11.656Z,22.06
2022-07-29T02:11:18.501Z,21.98
2022-07-29T02:14:24.644Z,21.89
2022-07-29T02:17:36.132Z,21.79
2022-07-29T02:20:51.468Z,21.69
2022-07-29T02:23:55.764Z,21.60
2022-07-29T02:27:05.196Z,21.52
2022-07-29T02:30:31.768Z,21.45
2022-07-29T02:33:58.512Z,21.40
2022-07-29T02:37:13.607Z,21.32
2022-07-29T02:40:16.695Z,21.28
2022-07-29T02:43:23.781Z,21.25
2022-07-29T02:46:32.946Z,21.17
2022-07-29T02:49:52.277Z,21.15
2022-07-29T02:53:18.890Z,21.09
2022-07-29T02:56:28.603Z,21.01
2022-07-29T02:59:38.031Z,20.98
2022-07-29T03:02:53.488Z,20.91
2022-07-29T03:06:28.115Z,20.86
2022-07-29T03:09:43.810Z,20.79
2022-07-29T03:12:49.097Z,20.71
2022-07-29T03:15:53.592Z,20.71
2022-07-29T03:18:56.896Z,20.66
2022-07-29T03:22:03.987Z,20.65
2022-07-29T03:25:12.643Z,20.62
2022-07-29T03:28:15.976Z,20.59
2022-07-29T03:31:18.961Z,20.56
2022-07-29T03:34:23.488Z,20.49
2022-07-29T03:37:26.402Z,20.45
2022-07-29T03:40:37.292Z,20.44
2022-07-29T03:43:49.112Z,20.45
2022-07-29T03:46:56.557Z,20.50
2022-07-29T03:50:05.490Z,20.53
2022-07-29T03:53:15.495Z,20.55
2022-07-29T03:56:22.538Z,20.64
2022-07-29T03:59:26.312Z,20.70
2022-07-29T04:02:30.848Z,20.73
2022-07-29T04:05:36.670Z,20.79
2022-07-29T04:08:40.095Z,20.88
2022-07-29T04:11:56.983Z,20.88
2022-07-29T04:15:07.881Z,20.93
2022-07-29T04:18:15.439Z,20.98
2022-07-29T04:21:17.969Z,21.13
2022-07-29T04:24:23.255Z,21.20
2022-07-29T04:27:33.102Z,21.30
2022-07-29T04:30:45.573Z,21.38
2022-07-29T04:33:48.217Z,21.39
2022-07-29T04:36:52.445Z,21.46
2022-07-29T04:39:56.375Z,21.44
2022-07-29T04:42:59.291Z,21.47
2022-07-29T04:46:10.199Z,21.58
2022-07-29T04:49:13.212Z,21.68
2022-07-29T04:52:15.887Z,21.72
2022-07-29T04:55:21.992Z,21.78
2022-07-29T04:58:27.357Z,21.79
2022-07-29T05:01:30.287Z,21.91
2022-07-29T05:04:36.205Z,22.06
2022-07-29T05:07:40.443Z,22.19
2022-07-29T05:10:45.359Z,22.32
2022-07-29T05:13:50.822Z,22.47
2022-07-29T05:16:57.611Z,22.66
2022-07-29T05:20:00.404Z,22.77
2022-07-29T05:23:05.520Z,22.89
2022-07-29T05:26:08.402Z,23.00
2022-07-29T05:29:43.840Z,23.16
2022-07-29T05:32:33.737Z,23.25
2022-07-29T05:35:39.848Z,23.44
2022-07-29T05:38:51.375Z,23.52
2022-07-29T05:42:03.075Z,23.60
2022-07-29T05:45:06.572Z,23.65
2022-07-29T05:48:09.282Z,23.81
2022-07-29T05:51:20.216Z,23.91
2022-07-29T05:54:23.494Z,24.02
2022-07-29T05:57:27.049Z,24.08
2022-07-29T06:00:29.777Z,24.32
2022-07-29T06:03:32.610Z,24.48
2022-07-29T06:06:35.842Z,24.55
2022-07-29T06:09:39.114Z,24.74
2022-07-29T06:12:41.632Z,24.94
2022-07-29T06:15:52.516Z,25.04
2022-07-29T06:18:55.491Z,25.02
2022-07-29T06:21:58.686Z,25.11
2022-07-29T06:25:08.014Z,25.17
2022-07-29T06:28:14.759Z,25.29
2022-07-29T06:31:19.255Z,25.35
2022-07-29T06:34:22.436Z,25.46
2022-07-29T06:37:28.082Z,25.51
2022-07-29T06:40:51.617Z,25.74
2022-07-29T06:44:00.202Z,25.78
2022-07-29T06:47:15.147Z,25.97
2022-07-29T06:50:20.664Z,26.12
2022-07-29T06:53:25.866Z,26.27
2022-07-29T06:56:40.228Z,26.73
2022-07-29T07:00:05.841Z,26.98
2022-07-29T07:03:08.698Z,27.07
2022-07-29T07:06:14.950Z,27.09
2022-07-29T07:09:18.131Z,27.36
2022-07-29T07:12:23.335Z,27.07
2022-07-29T07:15:39.857Z,27.37
2022-07-29T07:18:46.407Z,27.67
2022-07-29T07:21:49.366Z,27.85
2022-07-29T07:25:04.893Z,28.12
2022-07-29T07:28:44.242Z,27.93
2022-07-29T07:32:25.325Z,27.94
2022-07-29T07:35:50.654Z,27.71
2022-07-29T07:39:32.225Z,28.24
2022-07-29T07:43:03.054Z,28.44
2022-07-29T07:46:43.361Z,28.91
2022-07-29T07:50:01.566Z,29.26
2022-07-29T07:53:51.374Z,29.65
2022-07-29T07:57:32.578Z,29.77
2022-07-29T08:00:49.007Z,30.57
2022-07-29T08:04:20.994Z,30.85
2022-07-29T08:07:46.752Z,30.86
2022-07-29T08:11:21.165Z,31.61
2022-07-29T08:14:48.595Z,31.65
2022-07-29T08:18:14.856Z,31.95
2022-07-29T08:21:40.133Z,31.91
2022-07-29T08:25:21.381Z,32.62
2022-07-29T08:28:41.988Z,31.96
2022-07-29T08:32:36.935Z,33.13
2022-07-29T08:36:00.754Z,33.87
2022-07-29T08:43:37.559Z,34.09
2022-07-29T08:47:26.015Z,34.72
2022-07-29T08:51:29.677Z,35.11
2022-07-29T09:12:50.525Z,37.00
2022-07-29T09:20:27.522Z,37.06
2022-07-29T09:50:25.941Z,39.62
2022-07-29T09:54:35.537Z,38.67
2022-07-29T09:58:23.670Z,39.20
2022-07-29T10:02:02.260Z,39.70
2022-07-29T10:05:41.522Z,39.71
2022-07-29T10:09:11.805Z,39.21
2022-07-29T10:12:53.932Z,40.14
2022-07-29T10:16:34.280Z,39.23
2022-07-29T10:20:00.825Z,38.66
2022-07-29T10:23:47.044Z,39.03
2022-07-29T10:27:07.354Z,40.17
2022-07-29T10:30:41.780Z,40.23
2022-07-29T10:34:54.830Z,40.22
2022-07-29T10:38:45.715Z,40.31
2022-07-29T10:42:29.782Z,40.48
2022-07-29T10:45:57.761Z,38.65
2022-07-29T10:49:30.960Z,40.24
2022-07-29T10:53:00.026Z,39.77
2022-07-29T10:56:30.483Z,39.32
2022-07-29T11:00:09.455Z,39.85
2022-07-29T11:03:57.250Z,39.75
2022-07-29T11:08:25.303Z,40.02
2022-07-29T11:11:52.101Z,41.21
2022-07-29T11:16:29.937Z,39.25
2022-07-29T11:19:26.176Z,38.39
2022-07-29T11:30:14.571Z,38.13
2022-07-29T11:33:56.530Z,38.36
2022-07-29T11:37:32.550Z,38.23
2022-07-29T11:41:24.132Z,37.33
2022-07-29T11:45:44.122Z,36.47
2022-07-29T11:48:32.649Z,35.53
2022-07-29T11:52:11.838Z,35.27
2022-07-29T11:55:51.609Z,35.43
2022-07-29T11:59:15.461Z,36.92
2022-07-29T12:02:48.665Z,37.58
2022-07-29T12:06:22.454Z,38.29
2022-07-29T12:10:20.037Z,38.68
2022-07-29T12:13:44.975Z,35.86
2022-07-29T12:17:30.877Z,35.86
2022-07-29T12:21:13.013Z,35.77
2022-07-29T12:25:23.258Z,34.69
2022-07-29T12:28:28.165Z,35.16
2022-07-29T12:31:58.265Z,34.79
2022-07-29T12:35:34.794Z,34.40
2022-07-29T12:39:02.326Z,34.57
2022-07-29T12:42:37.333Z,35.45
2022-07-29T12:46:17.429Z,35.98
2022-07-29T12:49:38.037Z,36.48
2022-07-29T12:53:12.660Z,36.52
2022-07-29T12:56:42.276Z,35.96
2022-07-29T13:00:09.077Z,36.23
2022-07-29T13:03:30.251Z,35.88
2022-07-29T13:07:07.667Z,36.24
2022-07-29T13:10:38.873Z,36.14
2022-07-29T13:14:06.599Z,35.53
2022-07-29T13:17:32.964Z,35.32
2022-07-29T13:24:56.113Z,34.72
2022-07-29T13:28:35.374Z,34.51
2022-07-29T13:32:04.922Z,34.47
2022-07-29T13:35:35.167Z,34.20
2022-07-29T13:39:04.048Z,34.56
2022-07-29T13:42:45.435Z,34.68
2022-07-29T13:46:14.255Z,34.86
2022-07-29T13:49:54.170Z,34.94
2022-07-29T13:53:39.608Z,34.91
2022-07-29T13:57:16.561Z,34.77
2022-07-29T14:00:52.674Z,34.23
2022-07-29T14:04:24.338Z,34.25
2022-07-29T14:07:51.980Z,34.69
2022-07-29T14:11:34.889Z,34.91
2022-07-29T14:15:05.317Z,35.17
2022-07-29T14:18:46.138Z,35.14
2022-07-29T14:22:11.054Z,35.32
2022-07-29T14:25:49.496Z,35.04
2022-07-29T14:29:17.218Z,35.16
2022-07-29T14:33:04.426Z,34.95
2022-07-29T14:36:33.961Z,35.16
2022-07-29T14:40:21.410Z,34.20
2022-07-29T14:44:08.964Z,34.36
2022-07-29T14:47:34.858Z,34.21
2022-07-29T14:51:05.294Z,34.41
2022-07-29T14:54:45.501Z,34.46
2022-07-29T14:58:16.477Z,34.61
2022-07-29T15:01:55.282Z,34.29
2022-07-29T15:05:22.656Z,34.58
2022-07-29T15:09:03.449Z,34.73
2022-07-29T15:12:31.973Z,34.34
2022-07-29T15:16:00.296Z,34.37
2022-07-29T15:19:24.401Z,34.44
2022-07-29T15:23:03.671Z,34.34
2022-07-29T15:26:31.125Z,34.64
2022-07-29T15:30:10.835Z,34.82
2022-07-29T15:33:36.471Z,34.80
2022-07-29T15:37:14.137Z,35.04
2022-07-29T15:40:47.497Z,34.97
2022-07-29T15:44:24.061Z,35.01
2022-07-29T15:47:51.523Z,35.03
2022-07-29T15:51:29.148Z,35.03
2022-07-29T15:54:57.778Z,35.09
2022-07-29T15:58:43.826Z,35.20
2022-07-29T16:02:14.477Z,35.08
2022-07-29T16:05:55.795Z,34.83
2022-07-29T16:09:24.011Z,34.74
2022-07-29T16:13:08.135Z,34.37
2022-07-29T16:16:35.604Z,34.29
2022-07-29T16:20:08.228Z,33.96
2022-07-29T16:23:52.917Z,34.34
2022-07-29T16:27:18.719Z,34.12
2022-07-29T16:30:48.721Z,33.91
2022-07-29T16:34:24.699Z,33.77
2022-07-29T16:37:56.563Z,33.79
2022-07-29T16:41:27.489Z,33.22
2022-07-29T16:44:55.855Z,33.15
2022-07-29T16:48:44.417Z,33.11
2022-07-29T16:52:15.927Z,32.92
2022-07-29T16:55:42.097Z,32.70
2022-07-29T16:59:19.475Z,32.58
2022-07-29T17:03:01.541Z,32.24
2022-07-29T17:06:50.746Z,32.17
2022-07-29T17:10:16.349Z,31.78
2022-07-29T17:14:00.482Z,31.88
2022-07-29T17:17:38.798Z,31.76
2022-07-29T17:21:29.972Z,31.54
2022-07-29T17:25:02.863Z,31.30
2022-07-29T17:28:48.510Z,31.01
2022-07-29T17:32:14.279Z,30.88
2022-07-29T17:36:09.575Z,30.73
2022-07-29T17:39:35.711Z,30.52
2022-07-29T17:43:13.539Z,30.37
2022-07-29T17:46:41.597Z,30.17
2022-07-29T17:50:23.785Z,30.01
2022-07-29T17:53:52.882Z,29.86
2022-07-29T17:57:33.950Z,29.67
2022-07-29T18:00:59.913Z,29.36
2022-07-29T18:04:38.783Z,29.13
2022-07-29T18:08:06.844Z,28.93
2022-07-29T18:11:46.264Z,28.76
2022-07-29T18:15:11.431Z,28.46
2022-07-29T18:18:48.976Z,28.29
2022-07-29T18:22:26.828Z,28.14
2022-07-29T18:26:07.255Z,27.94
2022-07-29T18:29:34.761Z,27.72
2022-07-29T18:33:21.644Z,27.59
2022-07-29T18:36:47.874Z,27.42
2022-07-29T18:40:25.852Z,27.31
2022-07-29T18:43:51.302Z,27.13
2022-07-29T18:47:32.240Z,27.02
2022-07-29T18:51:09.287Z,26.95
2022-07-29T18:54:45.446Z,26.92
2022-07-29T18:58:13.814Z,26.89
2022-07-29T19:02:06.240Z,26.86
2022-07-29T19:05:45.715Z,26.81
2022-07-29T19:09:17.256Z,26.77
2022-07-29T19:12:54.547Z,26.75
2022-07-29T19:16:27.360Z,26.67
2022-07-29T19:20:08.142Z,26.60
2022-07-29T19:24:00.072Z,26.58
2022-07-29T19:27:13.641Z,26.78
2022-07-29T19:30:44.272Z,27.01
2022-07-29T19:34:35.395Z,27.13
2022-07-29T19:38:04.538Z,27.53
2022-07-29T19:41:44.093Z,27.58
2022-07-29T19:45:10.325Z,27.77
2022-07-29T19:48:39.973Z,27.77
2022-07-29T19:52:05.937Z,27.71
2022-07-29T19:55:46.601Z,27.67
2022-07-29T19:59:04.323Z,27.62
2022-07-29T20:02:34.328Z,27.52
2022-07-29T20:06:04.795Z,27.37
2022-07-29T20:09:22.153Z,27.24
2022-07-29T20:12:55.069Z,27.22
2022-07-29T20:16:18.890Z,27.08
2022-07-29T20:19:39.053Z,26.98
2022-07-29T20:23:06.922Z,26.98
2022-07-29T20:26:38.036Z,26.90
2022-07-29T20:30:15.383Z,26.85
2022-07-29T20:33:40.473Z,26.77
2022-07-29T20:37:28.983Z,26.81
2022-07-29T20:40:58.689Z,26.73
2022-07-29T20:44:37.163Z,26.69
2022-07-29T20:48:08.143Z,26.63
2022-07-29T20:51:43.729Z,26.57
2022-07-29T20:55:11.818Z,26.51
2022-07-29T20:58:52.845Z,26.44
2022-07-29T21:02:18.381Z,26.41
2022-07-29T21:05:57.446Z,26.35
2022-07-29T21:09:22.403Z,26.19
2022-07-29T21:13:00.095Z,26.12
2022-07-29T21:16:26.782Z,26.02
2022-07-29T21:20:10.311Z,25.92
2022-07-29T21:23:44.390Z,25.91
2022-07-29T21:27:32.621Z,25.79
2022-07-29T21:31:02.706Z,25.75
2022-07-29T21:34:44.942Z,25.68
2022-07-29T21:38:18.838Z,25.62
2022-07-29T21:41:58.755Z,25.49
2022-07-29T21:45:26.613Z,25.44
2022-07-29T21:49:07.604Z,25.35
2022-07-29T21:52:33.270Z,25.24
2022-07-29T21:56:02.427Z,25.22
2022-07-29T21:59:28.253Z,25.15
2022-07-29T22:03:05.763Z,25.10
2022-07-29T22:06:45.654Z,25.06
2022-07-29T22:10:18.700Z,24.96
2022-07-29T22:13:58.915Z,24.80
2022-07-29T22:17:26.828Z,24.76
2022-07-29T22:21:04.481Z,24.69
2022-07-29T22:24:32.338Z,24.64
2022-07-29T22:28:12.425Z,24.53
2022-07-29T22:31:37.437Z,24.48
2022-07-29T22:35:15.856Z,24.43
2022-07-29T22:38:43.135Z,24.38
2022-07-29T22:42:20.269Z,24.26
2022-07-29T22:45:55.610Z,24.16
2022-07-29T22:49:34.157Z,24.10
2022-07-29T22:53:01.862Z,24.00
2022-07-29T22:56:39.588Z,23.98
2022-07-29T23:00:11.696Z,23.92
2022-07-29T23:03:52.434Z,23.82
2022-07-29T23:07:22.439Z,23.72
2022-07-29T23:11:03.137Z,23.69
2022-07-29T23:14:28.488Z,23.56
2022-07-29T23:18:09.323Z,23.49
2022-07-29T23:21:36.446Z,23.45
2022-07-29T23:25:15.760Z,23.43
2022-07-29T23:28:46.515Z,23.37
2022-07-29T23:32:26.436Z,23.27
2022-07-29T23:35:51.586Z,23.30
2022-07-29T23:39:29.303Z,23.24
2022-07-29T23:42:57.016Z,23.19
2022-07-29T23:46:35.225Z,23.13
2022-07-29T23:50:00.912Z,23.10
2022-07-29T23:53:39.381Z,23.00
2022-07-29T23:57:07.043Z,22.94
